Terminal Aerodrome Forecast
Issued by NWS

Home | Current Version | Previous Version | Text Only | Print | Product List | Glossary On
Versions: 1 2 3 4 5 6 7 8 9 10 11 12 13 14 15 16 17 18 19 20 21 22 23 24 25 26 27 28 29 30 31 32 33 34 35 36 37 38 39 40 41 42 43
000
FTUS45 KGJT 241736
TAFRIL
TAF
KRIL 241736Z 2418/2518 VRB04KT P6SM VCSH FEW030 SCT070 OVC140
      TEMPO 2418/2419 P6SM NSW SCT040 BKN080
     FM241900 23008KT P6SM -SHRA VCTS SCT035 OVC050CB
      TEMPO 2419/2423 VRB15G25KT -TSRA BKN035CB
     FM250000 14005KT P6SM VCSH FEW050 OVC070
     FM251000 VRB03KT P6SM VCSH SCT020 OVC040
     FM251400 VRB03KT P6SM VCSH SCT030 OVC060=

USA.gov is the U.S. government's official web portal to all federal, state and local government web resources and services.